Time;durP1;ratioP1;P1;durP2;ratioP2;P2;SDS_P1;SDS_P2;PMS_P1;PMS_P2;Temp;Humidity;BMP_temperature;BMP_pressure;BME280_temperature;BME280_humidity;BME280_pressure;Samples;Min_cycle;Max_cycle;Signal;HPM_P1;HPM_P2
2021/07/07 00:00:16;;;;;;;;;;;;;;;19.79;86.69;97807.06;5014132;28;20594;-65
2021/07/07 00:02:42;;;;;;;;;;;;;;;19.88;86.14;97818.72;5018139;28;19917;-66
2021/07/07 00:05:08;;;;;;;;;;;;;;;19.90;86.52;97816.78;5015241;28;19918;-65
2021/07/07 00:07:33;;;;;;;;;;;;;;;19.89;86.73;97817.72;5017669;28;19913;-65
2021/07/07 00:09:58;;;;;;;;;;;;;;;19.88;86.88;97829.31;5017557;28;19923;-65
2021/07/07 00:12:24;;;;;;;;;;;;;;;19.42;89.07;97829.38;5021601;28;20008;-64
2021/07/07 00:14:49;;;;;;;;;;;;;;;19.44;88.92;97838.00;5020564;28;19961;-65
2021/07/07 00:17:15;;;;;;;;;;;;;;;19.25;90.05;97843.09;5018839;28;19921;-64
2021/07/07 00:19:40;;;;;;;;;;;;;;;19.13;91.59;97844.91;5015773;28;20051;-66
2021/07/07 00:22:05;;;;;;;;;;;;;;;19.04;89.75;97849.13;5016035;28;19971;-64
2021/07/07 00:24:31;;;;;;;;;;;;;;;18.47;90.49;97847.31;5018194;28;20375;-66
2021/07/07 00:26:56;;;;;;;;;;;;;;;18.55;88.91;97850.22;5016215;28;19925;-64
2021/07/07 00:29:21;;;;;;;;;;;;;;;18.36;89.71;97857.84;5019007;28;19917;-66
2021/07/07 00:31:46;;;;;;;;;;;;;;;18.71;88.82;97855.19;5016314;28;19924;-64
2021/07/07 00:34:12;;;;;;;;;;;;;;;18.66;89.35;97855.53;5018280;28;20306;-65
2021/07/07 00:37:30;;;;;;;;;;;;;;;18.40;89.85;97862.78;5046058;27;19951;-63
2021/07/07 00:39:55;;;;;;;;;;;;;;;18.46;89.21;97853.56;5040066;28;19921;-65
2021/07/07 00:42:20;;;;;;;;;;;;;;;18.19;90.97;97857.31;5039321;28;20007;-65
2021/07/07 00:44:45;;;;;;;;;;;;;;;18.40;89.08;97856.69;5040889;28;19924;-64
2021/07/07 00:47:10;;;;;;;;;;;;;;;18.43;89.73;97851.97;5037508;28;20327;-65
2021/07/07 00:49:36;;;;;;;;;;;;;;;18.41;89.96;97853.06;5034594;28;19917;-64
2021/07/07 00:52:03;;;;;;;;;;;;;;;18.49;89.61;97845.41;5033896;28;19921;-63
2021/07/07 00:54:29;;;;;;;;;;;;;;;18.61;88.48;97843.63;5033241;28;19921;-65
2021/07/07 00:56:55;;;;;;;;;;;;;;;18.63;88.87;97837.25;5041736;28;19925;-66
2021/07/07 00:59:21;;;;;;;;;;;;;;;18.72;88.33;97830.44;5037058;28;19920;-65
2021/07/07 01:01:46;;;;;;;;;;;;;;;18.97;86.53;97837.34;5037571;28;19925;-65
2021/07/07 01:04:12;;;;;;;;;;;;;;;18.75;86.01;97845.19;5042875;28;19913;-65
2021/07/07 01:06:37;;;;;;;;;;;;;;;18.77;84.60;97846.78;5036779;28;19920;-65
2021/07/07 01:09:03;;;;;;;;;;;;;;;18.69;85.47;97847.38;5033534;28;19927;-65
2021/07/07 01:11:31;;;;;;;;;;;;;;;18.68;86.20;97845.69;5037545;28;19928;-65
2021/07/07 01:13:56;;;;;;;;;;;;;;;18.44;87.63;97837.81;5033982;28;19917;-65
2021/07/07 01:16:21;;;;;;;;;;;;;;;18.86;85.18;97834.69;5032923;28;19933;-64
2021/07/07 01:18:47;;;;;;;;;;;;;;;18.78;84.76;97834.41;5037168;28;19914;-65
2021/07/07 01:21:12;;;;;;;;;;;;;;;18.71;85.74;97830.53;5035759;28;20333;-64
2021/07/07 01:23:37;;;;;;;;;;;;;;;18.83;85.46;97832.28;5034233;28;19965;-65
2021/07/07 01:26:03;;;;;;;;;;;;;;;18.79;86.36;97830.81;5035394;28;19928;-65
2021/07/07 01:28:31;;;;;;;;;;;;;;;18.52;87.48;97824.03;5037288;28;20436;-64
2021/07/07 01:30:56;;;;;;;;;;;;;;;18.55;87.62;97817.69;5033372;28;19964;-64
2021/07/07 01:33:21;;;;;;;;;;;;;;;18.49;87.81;97824.28;5035852;28;19925;-65
2021/07/07 01:35:46;;;;;;;;;;;;;;;18.86;86.21;97819.69;5042081;28;20354;-64
2021/07/07 01:38:12;;;;;;;;;;;;;;;19.14;84.57;97819.31;5052707;28;20409;-64
2021/07/07 01:40:37;;;;;;;;;;;;;;;19.09;84.16;97811.75;5053412;28;20388;-65
2021/07/07 01:43:02;;;;;;;;;;;;;;;18.65;85.56;97819.47;5058597;28;20605;-64
2021/07/07 01:45:29;;;;;;;;;;;;;;;18.48;86.73;97823.44;5056212;28;20823;-63
2021/07/07 01:47:54;;;;;;;;;;;;;;;18.68;86.31;97818.44;5051374;28;19916;-64
2021/07/07 01:50:21;;;;;;;;;;;;;;;18.79;86.23;97821.06;5044240;28;19916;-64
2021/07/07 01:52:46;;;;;;;;;;;;;;;18.71;86.61;97818.19;5047416;28;20015;-64
2021/07/07 01:55:12;;;;;;;;;;;;;;;18.55;86.67;97829.09;5045003;28;20023;-64
2021/07/07 01:57:44;;;;;;;;;;;;;;;18.43;88.66;97832.66;5046060;28;19908;-65
2021/07/07 02:00:15;;;;;;;;;;;;;;;18.64;87.79;97846.88;5037827;28;20036;-65
2021/07/07 02:02:41;;;;;;;;;;;;;;;18.51;88.29;97843.50;5042263;28;20698;-64
2021/07/07 02:05:07;;;;;;;;;;;;;;;18.59;87.58;97840.25;5037150;28;20015;-64
2021/07/07 02:07:32;;;;;;;;;;;;;;;19.02;86.33;97836.97;5040442;28;19963;-65
2021/07/07 02:09:58;;;;;;;;;;;;;;;18.64;87.01;97838.94;5041465;28;19944;-64
2021/07/07 02:12:23;;;;;;;;;;;;;;;18.57;85.55;97840.38;5037121;28;20345;-65
2021/07/07 02:14:49;;;;;;;;;;;;;;;18.73;86.70;97836.56;5045293;28;20509;-65
2021/07/07 02:17:14;;;;;;;;;;;;;;;19.27;83.49;97826.16;5045260;28;19928;-64
2021/07/07 02:19:39;;;;;;;;;;;;;;;18.87;86.36;97828.44;5040386;28;20047;-65
2021/07/07 02:22:05;;;;;;;;;;;;;;;18.75;86.48;97827.56;5044760;28;20007;-64
2021/07/07 02:24:30;;;;;;;;;;;;;;;18.52;87.67;97831.97;5026513;28;19917;-64
2021/07/07 02:26:55;;;;;;;;;;;;;;;18.22;88.54;97846.53;5042819;28;20019;-65
2021/07/07 02:29:20;;;;;;;;;;;;;;;18.57;86.85;97847.47;5040020;28;19936;-64
2021/07/07 02:31:46;;;;;;;;;;;;;;;18.59;86.10;97837.63;5036096;28;19966;-65
2021/07/07 02:34:11;;;;;;;;;;;;;;;19.19;85.28;97830.38;5043074;28;19920;-65
2021/07/07 02:36:36;;;;;;;;;;;;;;;19.36;85.10;97829.03;5042098;28;19978;-64
2021/07/07 02:39:02;;;;;;;;;;;;;;;19.07;84.97;97843.56;5041310;28;19927;-65
2021/07/07 02:41:27;;;;;;;;;;;;;;;18.61;85.84;97844.47;5037092;28;19928;-65
2021/07/07 02:43:52;;;;;;;;;;;;;;;18.53;86.88;97836.28;5044671;28;19916;-63
2021/07/07 02:46:18;;;;;;;;;;;;;;;18.63;87.80;97847.00;5044151;28;19921;-64
2021/07/07 02:48:43;;;;;;;;;;;;;;;18.39;88.29;97857.63;5044185;28;20396;-64
2021/07/07 02:51:08;;;;;;;;;;;;;;;18.08;90.52;97857.25;5044663;28;19921;-64
2021/07/07 02:53:34;;;;;;;;;;;;;;;18.55;88.88;97863.44;5042717;28;19924;-64
2021/07/07 02:55:59;;;;;;;;;;;;;;;18.49;89.08;97872.66;5023078;28;19971;-65
2021/07/07 02:58:24;;;;;;;;;;;;;;;18.27;90.24;97875.22;5040263;28;20237;-64
2021/07/07 03:00:50;;;;;;;;;;;;;;;18.38;90.14;97884.97;5039420;28;19939;-65
2021/07/07 03:04:03;;;;;;;;;;;;;;;18.00;92.45;97888.66;5047815;28;19917;-65
2021/07/07 03:06:29;;;;;;;;;;;;;;;18.34;91.50;97896.72;5049929;28;19937;-65
2021/07/07 03:08:54;;;;;;;;;;;;;;;18.54;89.70;97896.06;5049458;28;19925;-66
2021/07/07 03:11:19;;;;;;;;;;;;;;;18.44;89.12;97895.09;5037239;28;19932;-65
2021/07/07 03:13:56;;;;;;;;;;;;;;;18.48;88.44;97896.53;5047877;28;20482;-64
2021/07/07 03:16:22;;;;;;;;;;;;;;;18.46;88.81;97901.94;5051906;28;19946;-65
2021/07/07 03:18:47;;;;;;;;;;;;;;;18.46;88.74;97901.94;5057712;28;20469;-64
2021/07/07 03:21:12;;;;;;;;;;;;;;;18.07;91.14;97903.09;5066883;28;19920;-64
2021/07/07 03:23:37;;;;;;;;;;;;;;;18.48;88.21;97897.38;5077597;28;19923;-64
2021/07/07 03:26:03;;;;;;;;;;;;;;;18.37;88.67;97894.69;5077477;28;19927;-65
2021/07/07 03:28:28;;;;;;;;;;;;;;;18.63;87.97;97894.53;5077432;28;20386;-64
2021/07/07 03:30:54;;;;;;;;;;;;;;;18.81;86.99;97887.88;5082649;28;20294;-66
2021/07/07 03:34:15;;;;;;;;;;;;;;;18.94;86.76;97871.94;5059726;28;19916;-64
2021/07/07 03:36:41;;;;;;;;;;;;;;;19.20;86.50;97871.69;5056998;27;19986;-65
2021/07/07 03:39:06;;;;;;;;;;;;;;;19.12;85.72;97868.84;5054089;28;20522;-64
2021/07/07 03:41:32;;;;;;;;;;;;;;;18.57;88.36;97890.56;5057173;28;20438;-65
2021/07/07 03:43:58;;;;;;;;;;;;;;;18.55;89.94;97892.47;5056049;28;19924;-64
2021/07/07 03:46:23;;;;;;;;;;;;;;;18.75;88.94;97883.06;5058585;28;19920;-64
2021/07/07 03:49:07;;;;;;;;;;;;;;;19.42;85.50;97869.03;5049706;28;19921;-64
2021/07/07 03:51:32;;;;;;;;;;;;;;;18.99;87.18;97867.13;5012198;28;19987;-65
2021/07/07 03:53:57;;;;;;;;;;;;;;;18.73;88.35;97876.19;5005860;28;20639;-64
2021/07/07 03:56:22;;;;;;;;;;;;;;;18.87;88.16;97870.72;5006282;28;19987;-66
2021/07/07 03:58:48;;;;;;;;;;;;;;;18.99;86.51;97890.09;5007647;28;20023;-65
2021/07/07 04:01:13;;;;;;;;;;;;;;;18.86;87.18;97892.84;5007634;28;20273;-64
2021/07/07 04:03:39;;;;;;;;;;;;;;;18.76;87.61;97889.16;5006108;28;20006;-64
2021/07/07 04:06:04;;;;;;;;;;;;;;;18.69;88.20;97884.34;5003908;28;19925;-66
2021/07/07 04:08:29;;;;;;;;;;;;;;;18.67;88.12;97891.56;5005619;28;19924;-65
2021/07/07 04:10:54;;;;;;;;;;;;;;;18.83;86.87;97890.41;5004193;28;19926;-65
2021/07/07 04:13:20;;;;;;;;;;;;;;;18.50;88.02;97895.44;5004266;28;19940;-65
2021/07/07 04:15:45;;;;;;;;;;;;;;;18.65;87.26;97906.66;5004556;28;20264;-65
2021/07/07 04:18:10;;;;;;;;;;;;;;;18.81;86.69;97900.25;5003825;28;19926;-65
2021/07/07 04:20:36;;;;;;;;;;;;;;;18.56;87.38;97912.63;5004102;28;19922;-65
2021/07/07 04:23:02;;;;;;;;;;;;;;;18.70;87.84;97916.91;5004832;28;19925;-65
2021/07/07 04:25:27;;;;;;;;;;;;;;;18.78;86.84;97914.50;5005067;28;19952;-64
2021/07/07 04:27:52;;;;;;;;;;;;;;;18.86;86.59;97913.97;5004219;28;20446;-65
2021/07/07 04:30:18;;;;;;;;;;;;;;;18.61;88.21;97920.22;5004595;28;19951;-66
2021/07/07 04:34:46;;;;;;;;;;;;;;;18.88;87.51;97907.59;5066975;27;19971;-65
2021/07/07 04:37:11;;;;;;;;;;;;;;;19.18;86.37;97905.34;5038122;28;19925;-65
2021/07/07 04:39:37;;;;;;;;;;;;;;;18.84;87.43;97923.81;5036326;28;19928;-65
2021/07/07 04:42:02;;;;;;;;;;;;;;;18.82;87.50;97915.13;5052510;28;21003;-64
2021/07/07 04:44:27;;;;;;;;;;;;;;;18.49;88.62;97917.56;5056519;28;19916;-65
2021/07/07 04:46:53;;;;;;;;;;;;;;;18.54;88.61;97940.97;5055123;28;20488;-64
2021/07/07 04:49:18;;;;;;;;;;;;;;;18.53;88.98;97941.94;5054888;28;20952;-64
2021/07/07 04:51:43;;;;;;;;;;;;;;;18.51;88.35;97949.13;5055144;28;19921;-64
2021/07/07 04:54:08;;;;;;;;;;;;;;;18.55;88.91;97953.22;5056348;28;19942;-65
2021/07/07 04:56:33;;;;;;;;;;;;;;;18.53;88.46;97949.88;5054362;28;19925;-66
2021/07/07 04:58:59;;;;;;;;;;;;;;;18.85;87.22;97944.81;5052505;28;19966;-64
2021/07/07 05:01:24;;;;;;;;;;;;;;;18.81;87.77;97950.47;5054615;28;19987;-65
2021/07/07 05:03:49;;;;;;;;;;;;;;;18.74;87.60;97955.34;5041560;28;19919;-65
2021/07/07 05:06:14;;;;;;;;;;;;;;;18.75;87.35;97949.09;5057452;28;20393;-66
2021/07/07 05:08:40;;;;;;;;;;;;;;;19.00;86.15;97953.38;5054827;28;19924;-65
2021/07/07 05:11:05;;;;;;;;;;;;;;;18.75;87.16;97951.75;5057170;28;19920;-66
2021/07/07 05:13:31;;;;;;;;;;;;;;;18.63;88.46;97952.66;5057376;28;19999;-66
2021/07/07 05:15:57;;;;;;;;;;;;;;;18.72;88.90;97959.06;5057510;28;20016;-65
2021/07/07 05:18:22;;;;;;;;;;;;;;;18.84;87.64;97950.25;5057700;28;20026;-65
2021/07/07 05:20:47;;;;;;;;;;;;;;;18.92;87.17;97947.03;5055319;28;19924;-65
2021/07/07 05:23:13;;;;;;;;;;;;;;;18.84;87.21;97953.72;5057745;28;19922;-65
2021/07/07 05:25:39;;;;;;;;;;;;;;;19.03;85.93;97942.59;5057828;28;19921;-66
2021/07/07 05:28:05;;;;;;;;;;;;;;;18.74;87.21;97938.66;5058907;28;20321;-67
2021/07/07 05:30:31;;;;;;;;;;;;;;;18.56;88.84;97944.34;5054935;28;19921;-65
2021/07/07 05:32:57;;;;;;;;;;;;;;;18.51;88.63;97949.13;5055128;28;20312;-65
2021/07/07 05:35:22;;;;;;;;;;;;;;;18.48;89.51;97952.00;5054667;28;19917;-64
2021/07/07 05:37:48;;;;;;;;;;;;;;;18.52;88.10;97950.81;5056055;28;19916;-64
2021/07/07 05:40:16;;;;;;;;;;;;;;;18.91;85.93;97946.16;5056207;28;20332;-65
2021/07/07 05:42:42;;;;;;;;;;;;;;;18.54;87.31;97954.16;5053011;28;20406;-65
2021/07/07 05:45:07;;;;;;;;;;;;;;;18.43;89.47;97954.13;5046816;28;19921;-64
2021/07/07 05:47:33;;;;;;;;;;;;;;;18.50;88.28;97958.84;5041932;28;20284;-63
2021/07/07 05:49:58;;;;;;;;;;;;;;;18.34;90.33;97954.81;5043786;28;20362;-67
2021/07/07 05:53:02;;;;;;;;;;;;;;;18.42;88.13;97952.47;5110749;27;19973;-65
2021/07/07 05:55:28;;;;;;;;;;;;;;;18.48;87.45;97963.41;5105848;27;20670;-64
2021/07/07 05:57:53;;;;;;;;;;;;;;;18.68;86.80;97961.91;5092464;28;20513;-64
2021/07/07 06:00:20;;;;;;;;;;;;;;;18.74;86.99;97959.78;5091875;27;19919;-64
2021/07/07 06:02:48;;;;;;;;;;;;;;;18.67;87.10;97970.81;5092798;28;20005;-65
2021/07/07 06:05:13;;;;;;;;;;;;;;;18.78;86.62;97969.16;5093109;27;19920;-64
2021/07/07 06:07:39;;;;;;;;;;;;;;;18.64;87.45;97971.03;5094188;28;19923;-64
2021/07/07 06:10:06;;;;;;;;;;;;;;;18.65;87.99;97978.00;5094313;27;19999;-64
2021/07/07 06:12:31;;;;;;;;;;;;;;;18.93;87.14;97975.13;5093515;28;19947;-65
2021/07/07 06:14:57;;;;;;;;;;;;;;;19.49;85.35;97966.44;5093098;28;20016;-63
2021/07/07 06:17:22;;;;;;;;;;;;;;;19.83;85.52;97960.22;5093239;27;20578;-65
2021/07/07 06:19:47;;;;;;;;;;;;;;;20.26;83.12;97965.66;5094279;28;20305;-65
2021/07/07 06:22:12;;;;;;;;;;;;;;;19.53;85.18;97963.41;5092507;27;19928;-64
2021/07/07 06:24:38;;;;;;;;;;;;;;;19.50;85.59;97968.09;5090975;28;19950;-64
2021/07/07 06:27:03;;;;;;;;;;;;;;;19.07;87.52;97969.63;5089989;27;20209;-64
2021/07/07 06:29:28;;;;;;;;;;;;;;;19.33;86.87;97962.31;5091066;28;19963;-65
2021/07/07 06:31:53;;;;;;;;;;;;;;;19.67;87.92;97962.34;5089756;27;20241;-64
2021/07/07 06:34:19;;;;;;;;;;;;;;;19.44;87.18;97969.44;5093616;28;20269;-65
2021/07/07 06:36:45;;;;;;;;;;;;;;;19.05;87.95;97977.66;5092225;27;20313;-65
2021/07/07 06:39:10;;;;;;;;;;;;;;;19.37;88.26;97982.31;5091272;28;20462;-65
2021/07/07 06:41:35;;;;;;;;;;;;;;;19.07;87.97;97985.50;5090130;27;19916;-64
2021/07/07 06:44:00;;;;;;;;;;;;;;;19.13;87.43;97997.41;5092842;28;19995;-65
2021/07/07 06:46:26;;;;;;;;;;;;;;;19.04;85.27;97989.22;5092843;27;19920;-64
2021/07/07 06:48:51;;;;;;;;;;;;;;;19.38;86.05;97986.63;5091699;28;20350;-65
2021/07/07 06:51:19;;;;;;;;;;;;;;;19.75;85.18;97975.00;5091832;27;19928;-65
2021/07/07 06:53:44;;;;;;;;;;;;;;;19.49;86.70;97983.16;5091728;28;19964;-64
2021/07/07 06:56:10;;;;;;;;;;;;;;;18.90;87.53;97986.78;5091631;27;19955;-65
2021/07/07 06:58:37;;;;;;;;;;;;;;;18.91;89.53;97996.38;5090639;28;20006;-64
2021/07/07 07:01:03;;;;;;;;;;;;;;;19.49;86.82;97993.72;5090414;27;20400;-66
2021/07/07 07:03:28;;;;;;;;;;;;;;;19.80;84.59;97986.91;5083297;28;19916;-64
2021/07/07 07:05:53;;;;;;;;;;;;;;;20.02;83.90;97987.84;5075832;27;19924;-66
2021/07/07 07:08:19;;;;;;;;;;;;;;;19.51;84.72;97991.81;5078234;28;19920;-65
2021/07/07 07:10:44;;;;;;;;;;;;;;;19.03;87.10;98003.38;5077212;27;20357;-64
2021/07/07 07:13:10;;;;;;;;;;;;;;;18.98;87.00;98005.53;5078707;28;20364;-64
2021/07/07 07:15:35;;;;;;;;;;;;;;;19.07;87.51;98023.34;5081834;28;19921;-64
2021/07/07 07:18:01;;;;;;;;;;;;;;;19.03;85.67;98027.16;5075812;28;19920;-65
2021/07/07 07:20:29;;;;;;;;;;;;;;;18.88;86.50;98033.63;5076910;27;19924;-64
2021/07/07 07:22:55;;;;;;;;;;;;;;;18.99;87.10;98036.28;5078189;28;19916;-63
2021/07/07 07:25:20;;;;;;;;;;;;;;;19.63;85.19;98027.06;5078551;28;20725;-64
2021/07/07 07:27:46;;;;;;;;;;;;;;;20.19;82.95;98027.06;5075637;28;19923;-65
2021/07/07 07:30:11;;;;;;;;;;;;;;;20.17;82.49;98028.16;5077033;27;20071;-65
2021/07/07 07:32:37;;;;;;;;;;;;;;;19.76;84.77;98033.09;5074339;28;19920;-64
2021/07/07 07:35:02;;;;;;;;;;;;;;;19.83;85.87;98036.97;5073542;28;20758;-65
2021/07/07 07:37:37;;;;;;;;;;;;;;;19.73;86.43;98033.34;5077871;28;19963;-65
2021/07/07 07:40:09;;;;;;;;;;;;;;;19.93;84.20;98041.53;5075584;27;19917;-64
2021/07/07 07:42:35;;;;;;;;;;;;;;;19.54;88.47;98038.34;5078946;28;19939;-65
2021/07/07 07:45:00;;;;;;;;;;;;;;;19.64;87.71;98034.84;5077092;28;19966;-65
2021/07/07 07:47:26;;;;;;;;;;;;;;;20.30;83.29;98041.25;5077648;27;19916;-65
2021/07/07 07:49:51;;;;;;;;;;;;;;;20.34;82.46;98032.91;5077217;28;19922;-65
2021/07/07 07:52:18;;;;;;;;;;;;;;;19.79;86.20;98038.13;5076049;28;20321;-64
2021/07/07 07:54:43;;;;;;;;;;;;;;;20.06;84.25;98039.59;5075539;28;19916;-65
2021/07/07 07:57:08;;;;;;;;;;;;;;;20.01;83.97;98052.34;5075343;27;19920;-64
2021/07/07 07:59:34;;;;;;;;;;;;;;;19.53;84.74;98071.88;5073766;28;19912;-64
2021/07/07 08:01:59;;;;;;;;;;;;;;;19.49;87.85;98082.84;5076436;27;19949;-65
2021/07/07 08:04:24;;;;;;;;;;;;;;;19.52;86.41;98087.88;5076444;28;19916;-64
2021/07/07 08:06:49;;;;;;;;;;;;;;;19.34;86.64;98095.41;5077558;27;20334;-64
2021/07/07 08:09:15;;;;;;;;;;;;;;;19.26;88.92;98082.75;5077972;28;19938;-65
2021/07/07 08:11:42;;;;;;;;;;;;;;;19.41;88.04;98086.06;5076229;27;19923;-64
2021/07/07 08:14:07;;;;;;;;;;;;;;;19.48;87.62;98097.84;5076154;28;19916;-65
2021/07/07 08:16:33;;;;;;;;;;;;;;;19.31;87.51;98096.47;5077415;27;19951;-64
2021/07/07 08:18:58;;;;;;;;;;;;;;;19.12;88.71;98101.47;5076222;28;20271;-65
2021/07/07 08:21:23;;;;;;;;;;;;;;;19.38;89.92;98108.28;5077241;27;20580;-66
2021/07/07 08:23:49;;;;;;;;;;;;;;;19.32;89.73;98106.13;5076456;28;19922;-64
2021/07/07 08:26:14;;;;;;;;;;;;;;;19.61;89.47;98108.34;5075930;27;19920;-65
2021/07/07 08:28:40;;;;;;;;;;;;;;;19.42;88.75;98109.72;5076713;28;20493;-65
2021/07/07 08:31:05;;;;;;;;;;;;;;;19.41;86.75;98109.88;5073636;27;19925;-64
2021/07/07 08:33:30;;;;;;;;;;;;;;;19.31;87.97;98117.63;5077207;28;19920;-65
2021/07/07 08:35:55;;;;;;;;;;;;;;;19.51;87.49;98117.94;5075518;27;20015;-66
2021/07/07 08:40:07;;;;;;;;;;;;;;;19.22;87.18;98129.72;5047375;28;20054;-65
2021/07/07 08:42:35;;;;;;;;;;;;;;;19.36;89.02;98135.81;5067623;28;20468;-65
2021/07/07 08:45:02;;;;;;;;;;;;;;;19.60;87.65;98130.47;5069681;28;19913;-65
2021/07/07 08:47:27;;;;;;;;;;;;;;;19.58;87.95;98119.16;5069198;28;19921;-65
2021/07/07 08:49:52;;;;;;;;;;;;;;;19.53;87.33;98131.91;5071243;28;19913;-65
2021/07/07 08:52:17;;;;;;;;;;;;;;;19.55;85.80;98130.81;5069424;28;19924;-64
2021/07/07 08:54:46;;;;;;;;;;;;;;;19.60;85.44;98136.59;5067987;28;19912;-65
2021/07/07 08:57:11;;;;;;;;;;;;;;;19.81;84.83;98131.53;5070153;28;19917;-65
2021/07/07 08:59:37;;;;;;;;;;;;;;;20.47;82.41;98112.25;5067244;28;20083;-65
2021/07/07 09:02:02;;;;;;;;;;;;;;;20.66;80.52;98106.38;5067138;28;20376;-64
2021/07/07 09:04:32;;;;;;;;;;;;;;;20.60;81.39;98118.31;5069987;28;19952;-65
2021/07/07 09:06:58;;;;;;;;;;;;;;;20.93;79.88;98107.72;5068827;28;19948;-65
2021/07/07 09:09:37;;;;;;;;;;;;;;;21.01;80.12;98109.75;5068963;28;19916;-65
2021/07/07 09:12:22;;;;;;;;;;;;;;;21.48;77.30;98107.66;5067943;28;19931;-65
2021/07/07 09:14:49;;;;;;;;;;;;;;;21.35;78.00;98121.91;5059498;28;19970;-66
2021/07/07 09:17:15;;;;;;;;;;;;;;;21.62;76.22;98120.59;5068746;28;20885;-67
2021/07/07 09:19:44;;;;;;;;;;;;;;;21.20;77.76;98119.69;5069195;28;19920;-66
2021/07/07 09:22:11;;;;;;;;;;;;;;;21.83;74.82;98127.72;5068963;28;19927;-65
2021/07/07 09:24:37;;;;;;;;;;;;;;;21.28;78.73;98134.00;5069364;28;19920;-65
2021/07/07 09:27:04;;;;;;;;;;;;;;;21.65;76.47;98141.59;5068018;28;19920;-64
2021/07/07 09:29:34;;;;;;;;;;;;;;;21.54;77.45;98149.59;5068008;28;19916;-64
2021/07/07 09:32:09;;;;;;;;;;;;;;;21.66;76.40;98147.72;5065166;28;19920;-64
2021/07/07 09:34:36;;;;;;;;;;;;;;;21.56;76.52;98152.97;5068743;28;19924;-64
2021/07/07 09:37:02;;;;;;;;;;;;;;;21.26;77.29;98156.31;5068581;28;20373;-65
2021/07/07 09:39:30;;;;;;;;;;;;;;;20.58;80.53;98165.22;5065709;28;19932;-65
2021/07/07 09:41:56;;;;;;;;;;;;;;;21.04;78.95;98165.19;5066055;28;19925;-65
2021/07/07 09:44:21;;;;;;;;;;;;;;;20.11;82.51;98169.00;5069065;28;19916;-65
2021/07/07 09:46:47;;;;;;;;;;;;;;;20.92;79.13;98167.88;5066431;28;20301;-65
2021/07/07 09:49:13;;;;;;;;;;;;;;;20.78;80.65;98168.13;5066530;28;19917;-65
2021/07/07 09:51:38;;;;;;;;;;;;;;;20.87;78.74;98172.69;5053380;28;19932;-64
2021/07/07 09:54:05;;;;;;;;;;;;;;;20.70;79.89;98173.22;5055970;28;19913;-65
2021/07/07 09:56:30;;;;;;;;;;;;;;;20.94;79.14;98171.25;5055273;28;19944;-64
2021/07/07 09:58:56;;;;;;;;;;;;;;;21.37;77.30;98167.72;5053844;28;19959;-65
2021/07/07 10:01:21;;;;;;;;;;;;;;;21.66;76.46;98163.66;5052400;28;19959;-65
2021/07/07 10:03:47;;;;;;;;;;;;;;;21.61;76.94;98161.38;5052127;28;19999;-65
2021/07/07 10:06:14;;;;;;;;;;;;;;;20.96;77.83;98169.31;5053348;28;20345;-65
2021/07/07 10:08:41;;;;;;;;;;;;;;;21.48;76.91;98164.19;5055394;28;19916;-64
2021/07/07 10:11:06;;;;;;;;;;;;;;;21.51;76.63;98166.63;5052855;28;19921;-64
2021/07/07 10:13:32;;;;;;;;;;;;;;;21.55;76.28;98161.91;5052729;28;20310;-64
2021/07/07 10:15:57;;;;;;;;;;;;;;;20.66;77.93;98164.69;5052819;28;19956;-66
2021/07/07 10:18:23;;;;;;;;;;;;;;;20.95;79.44;98170.28;5053521;28;19955;-64
2021/07/07 10:20:49;;;;;;;;;;;;;;;20.95;78.11;98170.28;5051900;28;19932;-64
2021/07/07 10:23:15;;;;;;;;;;;;;;;20.52;79.11;98173.69;5051982;28;20318;-66
2021/07/07 10:25:42;;;;;;;;;;;;;;;20.44;80.06;98170.81;5053250;28;19943;-64
2021/07/07 10:28:10;;;;;;;;;;;;;;;20.36;81.34;98167.91;5052622;28;19921;-64
2021/07/07 10:30:56;;;;;;;;;;;;;;;20.71;79.21;98166.94;5051808;28;20799;-64
2021/07/07 10:33:22;;;;;;;;;;;;;;;20.57;79.24;98170.69;5052891;28;19920;-65
2021/07/07 10:35:49;;;;;;;;;;;;;;;21.10;78.64;98167.34;5055285;28;20340;-64
2021/07/07 10:40:24;;;;;;;;;;;;;;;20.59;79.28;98155.50;5063596;27;20472;-65
2021/07/07 10:42:50;;;;;;;;;;;;;;;20.63;80.49;98154.31;5070245;28;19920;-65
2021/07/07 10:45:29;;;;;;;;;;;;;;;21.26;78.12;98149.19;5068727;28;19923;-64
2021/07/07 10:47:54;;;;;;;;;;;;;;;21.80;75.28;98142.09;5071467;28;20531;-65
2021/07/07 10:50:32;;;;;;;;;;;;;;;21.92;75.28;98143.69;5068880;28;19916;-65
2021/07/07 10:52:57;;;;;;;;;;;;;;;21.82;76.69;98149.94;5067395;28;20394;-65
2021/07/07 10:55:24;;;;;;;;;;;;;;;22.13;73.73;98153.47;5068191;28;19916;-65
2021/07/07 10:57:50;;;;;;;;;;;;;;;22.24;75.75;98157.81;5070177;28;19913;-65
2021/07/07 11:00:18;;;;;;;;;;;;;;;21.99;75.16;98167.09;5069116;28;19927;-65
2021/07/07 11:02:43;;;;;;;;;;;;;;;22.29;74.17;98156.47;5067381;28;19904;-65
2021/07/07 11:05:22;;;;;;;;;;;;;;;22.67;71.25;98159.44;5068775;28;20110;-65
2021/07/07 11:07:48;;;;;;;;;;;;;;;22.32;74.66;98155.41;5067029;28;20520;-65
2021/07/07 11:10:17;;;;;;;;;;;;;;;22.56;72.32;98148.91;5066120;28;20374;-64
2021/07/07 11:12:42;;;;;;;;;;;;;;;22.89;70.68;98148.56;5068825;28;19912;-65
2021/07/07 11:15:07;;;;;;;;;;;;;;;23.03;69.25;98151.81;5068467;28;19923;-67
2021/07/07 11:17:52;;;;;;;;;;;;;;;22.63;71.98;98152.72;5066612;28;19920;-65
2021/07/07 11:20:24;;;;;;;;;;;;;;;22.86;70.21;98156.81;5066900;28;19921;-65
2021/07/07 11:23:02;;;;;;;;;;;;;;;23.03;69.17;98160.66;5066889;28;19916;-65
2021/07/07 11:25:28;;;;;;;;;;;;;;;22.78;70.33;98164.63;5067927;28;19920;-65
2021/07/07 11:27:53;;;;;;;;;;;;;;;22.12;72.74;98170.38;5066886;28;19913;-66
2021/07/07 11:30:19;;;;;;;;;;;;;;;21.97;74.05;98167.22;5066393;28;19923;-68
2021/07/07 11:32:46;;;;;;;;;;;;;;;21.33;74.47;98171.59;5070088;28;20617;-66
2021/07/07 11:35:15;;;;;;;;;;;;;;;21.84;74.28;98171.88;5066676;28;19923;-65
2021/07/07 11:37:41;;;;;;;;;;;;;;;21.70;74.45;98170.38;5068392;28;20347;-66
2021/07/07 11:40:14;;;;;;;;;;;;;;;21.96;72.78;98170.81;5089011;28;20468;-66
2021/07/07 11:42:57;;;;;;;;;;;;;;;21.84;75.03;98172.72;5087896;28;20006;-65
2021/07/07 11:45:42;;;;;;;;;;;;;;;22.02;75.15;98165.00;5087922;28;19916;-65
2021/07/07 11:50:54;;;;;;;;;;;;;;;22.19;76.82;98160.06;5077873;28;19960;-66
2021/07/07 11:53:20;;;;;;;;;;;;;;;22.14;75.24;98169.25;5075759;28;19924;-65
2021/07/07 11:56:04;;;;;;;;;;;;;;;22.17;77.60;98172.63;5075825;28;19925;-65
2021/07/07 11:58:31;;;;;;;;;;;;;;;22.55;76.45;98165.81;5075730;28;19920;-65
2021/07/07 12:00:57;;;;;;;;;;;;;;;22.04;78.98;98171.03;5071362;28;19924;-65
2021/07/07 12:03:23;;;;;;;;;;;;;;;21.90;79.84;98171.34;5075681;28;20015;-66
2021/07/07 12:06:08;;;;;;;;;;;;;;;21.21;81.28;98185.03;5074393;28;20650;-65
2021/07/07 12:08:37;;;;;;;;;;;;;;;21.48;78.45;98187.25;5072115;28;19912;-65
2021/07/07 12:11:03;;;;;;;;;;;;;;;21.31;79.83;98184.16;5074554;28;19977;-65
2021/07/07 12:13:28;;;;;;;;;;;;;;;21.63;79.32;98185.97;5073807;28;20019;-65
2021/07/07 12:16:16;;;;;;;;;;;;;;;21.32;80.24;98187.63;5071834;28;20054;-65
2021/07/07 12:18:43;;;;;;;;;;;;;;;21.38;77.04;98187.97;5072434;28;20105;-66
2021/07/07 12:21:08;;;;;;;;;;;;;;;21.81;77.61;98177.44;5073791;28;19969;-65
2021/07/07 12:23:43;;;;;;;;;;;;;;;21.75;78.36;98181.47;5058075;28;19916;-65
2021/07/07 12:26:09;;;;;;;;;;;;;;;21.40;78.32;98184.38;5073868;28;20347;-65
2021/07/07 12:28:34;;;;;;;;;;;;;;;21.74;75.31;98180.63;5074449;28;19977;-65
2021/07/07 12:30:59;;;;;;;;;;;;;;;21.42;74.54;98179.78;5072177;28;20296;-65
2021/07/07 12:33:28;;;;;;;;;;;;;;;21.82;73.39;98187.09;5072902;28;20562;-65
2021/07/07 12:35:54;;;;;;;;;;;;;;;22.09;74.64;98182.09;5075360;28;19924;-65
2021/07/07 12:38:19;;;;;;;;;;;;;;;22.23;73.70;98180.06;5073257;28;19931;-64
2021/07/07 12:40:51;;;;;;;;;;;;;;;22.20;74.98;98175.00;5073175;28;19955;-65
2021/07/07 12:43:25;;;;;;;;;;;;;;;22.27;76.45;98184.16;5071996;28;20439;-66
2021/07/07 12:46:00;;;;;;;;;;;;;;;22.38;76.58;98176.09;5072181;28;20399;-65
2021/07/07 12:48:25;;;;;;;;;;;;;;;22.36;72.79;98178.06;5071997;28;19922;-66
2021/07/07 12:50:51;;;;;;;;;;;;;;;22.88;74.09;98183.28;5070775;28;19920;-65
2021/07/07 12:53:30;;;;;;;;;;;;;;;23.05;73.23;98181.81;5073561;28;19974;-65
2021/07/07 12:56:04;;;;;;;;;;;;;;;22.49;79.48;98188.47;5074149;28;19928;-65